sensor_id;sensor_type;location;lat;lon;timestamp;P1;durP1;ratioP1;P2;durP2;ratioP2
68870;SDS011;55906;52.278;6.808;2023-06-26T00:02:16;7.60;;;6.22;;
68870;SDS011;55906;52.278;6.808;2023-06-26T00:04:43;9.15;;;6.50;;
68870;SDS011;55906;52.278;6.808;2023-06-26T00:07:10;8.98;;;6.75;;
68870;SDS011;55906;52.278;6.808;2023-06-26T00:09:37;8.43;;;6.32;;
68870;SDS011;55906;52.278;6.808;2023-06-26T00:12:04;8.52;;;6.47;;
68870;SDS011;55906;52.278;6.808;2023-06-26T00:14:32;8.35;;;7.00;;
68870;SDS011;55906;52.278;6.808;2023-06-26T00:16:59;7.40;;;5.93;;
68870;SDS011;55906;52.278;6.808;2023-06-26T00:19:25;7.45;;;5.72;;
68870;SDS011;55906;52.278;6.808;2023-06-26T00:21:52;7.95;;;6.20;;
68870;SDS011;55906;52.278;6.808;2023-06-26T00:24:19;7.53;;;6.10;;
68870;SDS011;55906;52.278;6.808;2023-06-26T00:26:46;7.88;;;6.30;;
68870;SDS011;55906;52.278;6.808;2023-06-26T00:29:13;6.82;;;5.80;;
68870;SDS011;55906;52.278;6.808;2023-06-26T00:31:41;6.93;;;5.35;;
68870;SDS011;55906;52.278;6.808;2023-06-26T00:34:08;7.45;;;6.03;;
68870;SDS011;55906;52.278;6.808;2023-06-26T00:36:35;7.75;;;6.07;;
68870;SDS011;55906;52.278;6.808;2023-06-26T00:39:01;7.72;;;5.60;;
68870;SDS011;55906;52.278;6.808;2023-06-26T00:41:30;8.43;;;6.72;;
68870;SDS011;55906;52.278;6.808;2023-06-26T00:43:57;8.88;;;6.22;;
68870;SDS011;55906;52.278;6.808;2023-06-26T00:46:23;8.55;;;7.13;;
68870;SDS011;55906;52.278;6.808;2023-06-26T00:48:52;7.97;;;6.65;;
68870;SDS011;55906;52.278;6.808;2023-06-26T00:51:20;9.43;;;7.47;;
68870;SDS011;55906;52.278;6.808;2023-06-26T00:53:47;10.73;;;7.60;;
68870;SDS011;55906;52.278;6.808;2023-06-26T00:56:14;11.75;;;9.23;;
68870;SDS011;55906;52.278;6.808;2023-06-26T00:58:41;10.25;;;8.52;;
68870;SDS011;55906;52.278;6.808;2023-06-26T01:01:08;9.98;;;8.20;;
68870;SDS011;55906;52.278;6.808;2023-06-26T01:03:41;9.48;;;7.45;;
68870;SDS011;55906;52.278;6.808;2023-06-26T01:06:09;8.50;;;6.97;;
68870;SDS011;55906;52.278;6.808;2023-06-26T01:08:38;10.18;;;7.97;;
68870;SDS011;55906;52.278;6.808;2023-06-26T01:11:07;8.32;;;6.95;;
68870;SDS011;55906;52.278;6.808;2023-06-26T01:13:34;9.57;;;7.90;;
68870;SDS011;55906;52.278;6.808;2023-06-26T01:16:01;8.95;;;6.82;;
68870;SDS011;55906;52.278;6.808;2023-06-26T01:18:30;8.02;;;6.60;;
68870;SDS011;55906;52.278;6.808;2023-06-26T01:20:58;9.20;;;7.20;;
68870;SDS011;55906;52.278;6.808;2023-06-26T01:23:29;10.57;;;7.78;;
68870;SDS011;55906;52.278;6.808;2023-06-26T01:26:17;10.80;;;9.25;;
68870;SDS011;55906;52.278;6.808;2023-06-26T01:28:46;9.82;;;7.10;;
68870;SDS011;55906;52.278;6.808;2023-06-26T01:31:15;11.13;;;8.30;;
68870;SDS011;55906;52.278;6.808;2023-06-26T01:33:43;9.52;;;7.93;;
68870;SDS011;55906;52.278;6.808;2023-06-26T01:36:09;9.52;;;7.90;;
68870;SDS011;55906;52.278;6.808;2023-06-26T01:38:36;10.18;;;8.38;;
68870;SDS011;55906;52.278;6.808;2023-06-26T01:41:03;10.00;;;8.18;;
68870;SDS011;55906;52.278;6.808;2023-06-26T01:43:36;9.13;;;7.22;;
68870;SDS011;55906;52.278;6.808;2023-06-26T01:46:10;9.32;;;7.55;;
68870;SDS011;55906;52.278;6.808;2023-06-26T01:48:44;9.45;;;8.02;;
68870;SDS011;55906;52.278;6.808;2023-06-26T01:51:16;10.38;;;8.88;;
68870;SDS011;55906;52.278;6.808;2023-06-26T01:53:46;9.73;;;7.93;;
68870;SDS011;55906;52.278;6.808;2023-06-26T01:56:19;10.27;;;9.13;;
68870;SDS011;55906;52.278;6.808;2023-06-26T01:58:50;10.35;;;8.65;;
68870;SDS011;55906;52.278;6.808;2023-06-26T02:01:20;11.13;;;8.25;;
68870;SDS011;55906;52.278;6.808;2023-06-26T02:03:47;11.80;;;10.10;;
68870;SDS011;55906;52.278;6.808;2023-06-26T02:06:14;10.40;;;8.68;;
68870;SDS011;55906;52.278;6.808;2023-06-26T02:08:41;10.60;;;8.63;;
68870;SDS011;55906;52.278;6.808;2023-06-26T02:11:08;10.50;;;9.10;;
68870;SDS011;55906;52.278;6.808;2023-06-26T02:13:34;11.77;;;9.07;;
68870;SDS011;55906;52.278;6.808;2023-06-26T02:16:02;10.98;;;8.85;;
68870;SDS011;55906;52.278;6.808;2023-06-26T02:18:29;12.20;;;9.98;;
68870;SDS011;55906;52.278;6.808;2023-06-26T02:20:56;10.32;;;8.43;;
68870;SDS011;55906;52.278;6.808;2023-06-26T02:23:23;11.82;;;10.27;;
68870;SDS011;55906;52.278;6.808;2023-06-26T02:25:49;11.98;;;9.23;;
68870;SDS011;55906;52.278;6.808;2023-06-26T02:28:16;12.73;;;10.50;;
68870;SDS011;55906;52.278;6.808;2023-06-26T02:30:42;12.18;;;10.23;;
68870;SDS011;55906;52.278;6.808;2023-06-26T02:33:11;11.23;;;9.80;;
68870;SDS011;55906;52.278;6.808;2023-06-26T02:35:37;13.35;;;10.68;;
68870;SDS011;55906;52.278;6.808;2023-06-26T02:38:04;13.13;;;10.70;;
68870;SDS011;55906;52.278;6.808;2023-06-26T02:40:30;12.50;;;9.93;;
68870;SDS011;55906;52.278;6.808;2023-06-26T02:42:57;12.73;;;10.38;;
68870;SDS011;55906;52.278;6.808;2023-06-26T02:45:24;12.32;;;9.93;;
68870;SDS011;55906;52.278;6.808;2023-06-26T02:47:51;12.60;;;10.50;;
68870;SDS011;55906;52.278;6.808;2023-06-26T02:50:19;13.27;;;9.47;;
68870;SDS011;55906;52.278;6.808;2023-06-26T02:52:45;12.70;;;9.95;;
68870;SDS011;55906;52.278;6.808;2023-06-26T02:55:15;10.48;;;8.70;;
68870;SDS011;55906;52.278;6.808;2023-06-26T02:57:42;13.32;;;10.57;;
68870;SDS011;55906;52.278;6.808;2023-06-26T03:00:09;14.07;;;10.90;;
68870;SDS011;55906;52.278;6.808;2023-06-26T03:02:36;13.47;;;10.57;;
68870;SDS011;55906;52.278;6.808;2023-06-26T03:05:03;12.40;;;10.70;;
68870;SDS011;55906;52.278;6.808;2023-06-26T03:07:32;17.35;;;12.18;;
68870;SDS011;55906;52.278;6.808;2023-06-26T03:09:58;15.40;;;12.07;;
68870;SDS011;55906;52.278;6.808;2023-06-26T03:12:25;14.05;;;11.93;;
68870;SDS011;55906;52.278;6.808;2023-06-26T03:14:52;15.00;;;11.60;;
68870;SDS011;55906;52.278;6.808;2023-06-26T03:17:18;13.20;;;10.80;;
68870;SDS011;55906;52.278;6.808;2023-06-26T03:19:45;13.93;;;12.02;;
68870;SDS011;55906;52.278;6.808;2023-06-26T03:22:12;16.02;;;13.18;;
68870;SDS011;55906;52.278;6.808;2023-06-26T03:24:40;14.05;;;12.27;;
68870;SDS011;55906;52.278;6.808;2023-06-26T03:27:07;15.73;;;12.20;;
68870;SDS011;55906;52.278;6.808;2023-06-26T03:29:35;17.73;;;12.50;;
68870;SDS011;55906;52.278;6.808;2023-06-26T03:32:01;15.90;;;12.98;;
68870;SDS011;55906;52.278;6.808;2023-06-26T03:34:28;16.25;;;11.98;;
68870;SDS011;55906;52.278;6.808;2023-06-26T03:36:55;13.35;;;10.90;;
68870;SDS011;55906;52.278;6.808;2023-06-26T03:39:21;18.13;;;13.30;;
68870;SDS011;55906;52.278;6.808;2023-06-26T03:41:49;14.73;;;11.98;;
68870;SDS011;55906;52.278;6.808;2023-06-26T03:44:18;16.45;;;13.02;;
68870;SDS011;55906;52.278;6.808;2023-06-26T03:46:45;16.35;;;12.65;;
68870;SDS011;55906;52.278;6.808;2023-06-26T03:49:12;15.82;;;12.30;;
68870;SDS011;55906;52.278;6.808;2023-06-26T03:51:39;17.37;;;12.93;;
68870;SDS011;55906;52.278;6.808;2023-06-26T03:54:06;17.10;;;13.73;;
68870;SDS011;55906;52.278;6.808;2023-06-26T03:56:32;15.80;;;12.18;;
68870;SDS011;55906;52.278;6.808;2023-06-26T03:59:00;15.45;;;13.15;;
68870;SDS011;55906;52.278;6.808;2023-06-26T04:01:27;19.77;;;14.48;;
68870;SDS011;55906;52.278;6.808;2023-06-26T04:03:54;16.00;;;13.37;;
68870;SDS011;55906;52.278;6.808;2023-06-26T04:06:21;17.30;;;13.88;;
68870;SDS011;55906;52.278;6.808;2023-06-26T04:08:47;17.00;;;14.50;;
68870;SDS011;55906;52.278;6.808;2023-06-26T04:11:14;14.88;;;12.90;;
68870;SDS011;55906;52.278;6.808;2023-06-26T04:13:41;14.57;;;11.57;;
68870;SDS011;55906;52.278;6.808;2023-06-26T04:16:09;15.47;;;12.60;;
68870;SDS011;55906;52.278;6.808;2023-06-26T04:18:36;15.20;;;12.55;;
68870;SDS011;55906;52.278;6.808;2023-06-26T04:21:03;16.33;;;13.18;;
68870;SDS011;55906;52.278;6.808;2023-06-26T04:23:33;15.57;;;12.35;;
68870;SDS011;55906;52.278;6.808;2023-06-26T04:26:00;16.05;;;12.40;;
68870;SDS011;55906;52.278;6.808;2023-06-26T04:28:27;15.67;;;13.27;;
68870;SDS011;55906;52.278;6.808;2023-06-26T04:30:54;14.75;;;12.15;;
68870;SDS011;55906;52.278;6.808;2023-06-26T04:33:22;16.08;;;11.82;;
68870;SDS011;55906;52.278;6.808;2023-06-26T04:35:49;15.98;;;12.27;;
68870;SDS011;55906;52.278;6.808;2023-06-26T04:38:16;15.88;;;11.93;;
68870;SDS011;55906;52.278;6.808;2023-06-26T04:40:42;19.57;;;12.50;;
68870;SDS011;55906;52.278;6.808;2023-06-26T04:43:09;16.02;;;11.77;;
68870;SDS011;55906;52.278;6.808;2023-06-26T04:45:36;14.13;;;11.93;;
68870;SDS011;55906;52.278;6.808;2023-06-26T04:48:03;14.88;;;12.23;;
68870;SDS011;55906;52.278;6.808;2023-06-26T04:50:32;14.90;;;11.75;;
68870;SDS011;55906;52.278;6.808;2023-06-26T04:52:58;14.50;;;11.27;;
68870;SDS011;55906;52.278;6.808;2023-06-26T04:55:25;14.73;;;11.40;;
68870;SDS011;55906;52.278;6.808;2023-06-26T04:57:53;16.33;;;10.65;;
68870;SDS011;55906;52.278;6.808;2023-06-26T05:00:20;16.80;;;11.50;;
68870;SDS011;55906;52.278;6.808;2023-06-26T05:02:47;17.27;;;11.13;;
68870;SDS011;55906;52.278;6.808;2023-06-26T05:05:14;14.97;;;10.93;;
68870;SDS011;55906;52.278;6.808;2023-06-26T05:07:42;13.30;;;10.65;;
68870;SDS011;55906;52.278;6.808;2023-06-26T05:10:09;15.73;;;10.90;;
68870;SDS011;55906;52.278;6.808;2023-06-26T05:12:36;16.83;;;10.48;;
68870;SDS011;55906;52.278;6.808;2023-06-26T05:15:03;15.80;;;9.80;;
68870;SDS011;55906;52.278;6.808;2023-06-26T05:17:30;14.10;;;10.30;;
68870;SDS011;55906;52.278;6.808;2023-06-26T05:19:57;13.88;;;9.10;;
68870;SDS011;55906;52.278;6.808;2023-06-26T05:22:24;15.40;;;10.10;;
68870;SDS011;55906;52.278;6.808;2023-06-26T05:24:53;13.43;;;9.65;;
68870;SDS011;55906;52.278;6.808;2023-06-26T05:27:23;14.30;;;8.93;;
68870;SDS011;55906;52.278;6.808;2023-06-26T05:29:50;18.13;;;9.00;;
68870;SDS011;55906;52.278;6.808;2023-06-26T05:32:17;13.02;;;8.55;;
68870;SDS011;55906;52.278;6.808;2023-06-26T05:34:45;12.88;;;7.55;;
68870;SDS011;55906;52.278;6.808;2023-06-26T05:37:14;12.15;;;7.35;;
68870;SDS011;55906;52.278;6.808;2023-06-26T05:39:43;10.38;;;6.75;;
68870;SDS011;55906;52.278;6.808;2023-06-26T05:42:13;11.73;;;7.73;;
68870;SDS011;55906;52.278;6.808;2023-06-26T05:44:41;12.73;;;6.90;;
68870;SDS011;55906;52.278;6.808;2023-06-26T05:47:07;13.95;;;7.80;;
68870;SDS011;55906;52.278;6.808;2023-06-26T05:49:34;13.50;;;7.43;;
68870;SDS011;55906;52.278;6.808;2023-06-26T05:52:01;12.73;;;7.30;;
68870;SDS011;55906;52.278;6.808;2023-06-26T05:54:28;13.17;;;6.97;;
68870;SDS011;55906;52.278;6.808;2023-06-26T05:56:56;11.48;;;6.63;;
68870;SDS011;55906;52.278;6.808;2023-06-26T05:59:26;11.30;;;7.55;;
68870;SDS011;55906;52.278;6.808;2023-06-26T06:01:53;14.13;;;7.10;;
68870;SDS011;55906;52.278;6.808;2023-06-26T06:04:19;14.30;;;7.25;;
68870;SDS011;55906;52.278;6.808;2023-06-26T06:06:46;11.13;;;6.97;;
68870;SDS011;55906;52.278;6.808;2023-06-26T06:09:13;13.88;;;6.63;;
68870;SDS011;55906;52.278;6.808;2023-06-26T06:11:40;15.70;;;7.93;;
68870;SDS011;55906;52.278;6.808;2023-06-26T06:14:07;12.10;;;8.07;;
68870;SDS011;55906;52.278;6.808;2023-06-26T06:16:35;9.65;;;6.72;;
68870;SDS011;55906;52.278;6.808;2023-06-26T06:19:03;14.80;;;7.17;;
68870;SDS011;55906;52.278;6.808;2023-06-26T06:21:32;15.70;;;8.02;;
68870;SDS011;55906;52.278;6.808;2023-06-26T06:23:58;12.70;;;7.05;;
68870;SDS011;55906;52.278;6.808;2023-06-26T06:26:26;14.20;;;7.63;;
68870;SDS011;55906;52.278;6.808;2023-06-26T06:28:52;15.27;;;7.28;;
68870;SDS011;55906;52.278;6.808;2023-06-26T06:31:19;14.60;;;6.40;;
68870;SDS011;55906;52.278;6.808;2023-06-26T06:33:47;13.25;;;7.07;;
68870;SDS011;55906;52.278;6.808;2023-06-26T06:36:14;14.45;;;6.50;;
68870;SDS011;55906;52.278;6.808;2023-06-26T06:38:42;12.05;;;6.15;;
68870;SDS011;55906;52.278;6.808;2023-06-26T06:41:09;12.88;;;6.03;;
68870;SDS011;55906;52.278;6.808;2023-06-26T06:43:35;12.60;;;6.05;;
68870;SDS011;55906;52.278;6.808;2023-06-26T06:46:02;12.02;;;6.55;;
68870;SDS011;55906;52.278;6.808;2023-06-26T06:48:29;13.23;;;6.25;;
68870;SDS011;55906;52.278;6.808;2023-06-26T06:50:57;12.25;;;5.80;;
68870;SDS011;55906;52.278;6.808;2023-06-26T06:53:24;11.60;;;6.18;;
68870;SDS011;55906;52.278;6.808;2023-06-26T06:55:50;10.85;;;5.18;;
68870;SDS011;55906;52.278;6.808;2023-06-26T06:58:17;12.55;;;5.97;;
68870;SDS011;55906;52.278;6.808;2023-06-26T07:00:45;11.40;;;5.57;;
68870;SDS011;55906;52.278;6.808;2023-06-26T07:03:11;11.93;;;5.47;;
68870;SDS011;55906;52.278;6.808;2023-06-26T07:05:38;12.20;;;5.97;;
68870;SDS011;55906;52.278;6.808;2023-06-26T07:08:06;10.75;;;5.18;;
68870;SDS011;55906;52.278;6.808;2023-06-26T07:10:33;13.25;;;5.65;;
68870;SDS011;55906;52.278;6.808;2023-06-26T07:13:00;12.27;;;5.90;;
68870;SDS011;55906;52.278;6.808;2023-06-26T07:15:27;11.02;;;5.70;;
68870;SDS011;55906;52.278;6.808;2023-06-26T07:17:54;11.68;;;6.20;;
68870;SDS011;55906;52.278;6.808;2023-06-26T07:20:20;11.40;;;5.53;;
68870;SDS011;55906;52.278;6.808;2023-06-26T07:22:48;9.07;;;5.15;;
68870;SDS011;55906;52.278;6.808;2023-06-26T07:25:16;11.85;;;4.88;;
68870;SDS011;55906;52.278;6.808;2023-06-26T07:27:43;9.63;;;5.32;;
68870;SDS011;55906;52.278;6.808;2023-06-26T07:30:10;9.85;;;4.43;;
68870;SDS011;55906;52.278;6.808;2023-06-26T07:32:37;9.52;;;4.80;;
68870;SDS011;55906;52.278;6.808;2023-06-26T07:35:05;8.68;;;4.40;;
68870;SDS011;55906;52.278;6.808;2023-06-26T07:37:32;8.38;;;4.30;;
68870;SDS011;55906;52.278;6.808;2023-06-26T07:39:59;5.95;;;3.63;;
68870;SDS011;55906;52.278;6.808;2023-06-26T07:42:27;5.78;;;3.53;;
68870;SDS011;55906;52.278;6.808;2023-06-26T07:44:56;6.78;;;3.25;;
68870;SDS011;55906;52.278;6.808;2023-06-26T07:47:23;6.35;;;3.20;;
68870;SDS011;55906;52.278;6.808;2023-06-26T07:49:49;7.63;;;3.08;;
68870;SDS011;55906;52.278;6.808;2023-06-26T07:52:17;5.75;;;2.95;;
68870;SDS011;55906;52.278;6.808;2023-06-26T07:54:44;5.25;;;3.08;;
68870;SDS011;55906;52.278;6.808;2023-06-26T07:57:11;6.95;;;2.88;;
68870;SDS011;55906;52.278;6.808;2023-06-26T07:59:39;6.03;;;2.30;;
68870;SDS011;55906;52.278;6.808;2023-06-26T08:02:06;5.05;;;2.67;;
68870;SDS011;55906;52.278;6.808;2023-06-26T08:04:33;6.57;;;2.35;;
68870;SDS011;55906;52.278;6.808;2023-06-26T08:07:00;5.25;;;2.42;;
68870;SDS011;55906;52.278;6.808;2023-06-26T08:09:29;5.60;;;2.40;;
68870;SDS011;55906;52.278;6.808;2023-06-26T08:11:56;5.20;;;2.90;;
68870;SDS011;55906;52.278;6.808;2023-06-26T08:14:23;6.13;;;3.00;;
68870;SDS011;55906;52.278;6.808;2023-06-26T08:16:51;7.65;;;2.78;;
68870;SDS011;55906;52.278;6.808;2023-06-26T08:19:18;4.82;;;2.65;;
68870;SDS011;55906;52.278;6.808;2023-06-26T08:21:45;5.30;;;2.50;;
68870;SDS011;55906;52.278;6.808;2023-06-26T08:24:12;4.72;;;2.72;;
68870;SDS011;55906;52.278;6.808;2023-06-26T08:26:41;5.40;;;2.22;;
68870;SDS011;55906;52.278;6.808;2023-06-26T08:29:08;8.98;;;2.72;;
68870;SDS011;55906;52.278;6.808;2023-06-26T08:31:34;4.60;;;2.30;;
68870;SDS011;55906;52.278;6.808;2023-06-26T08:34:02;5.25;;;2.97;;
68870;SDS011;55906;52.278;6.808;2023-06-26T08:36:30;5.65;;;2.70;;
68870;SDS011;55906;52.278;6.808;2023-06-26T08:38:56;4.90;;;2.58;;
68870;SDS011;55906;52.278;6.808;2023-06-26T08:41:23;5.43;;;2.78;;
68870;SDS011;55906;52.278;6.808;2023-06-26T08:43:51;5.60;;;2.88;;
68870;SDS011;55906;52.278;6.808;2023-06-26T08:46:18;6.10;;;2.55;;
68870;SDS011;55906;52.278;6.808;2023-06-26T08:48:48;5.88;;;2.55;;
68870;SDS011;55906;52.278;6.808;2023-06-26T08:51:17;5.80;;;2.90;;
68870;SDS011;55906;52.278;6.808;2023-06-26T08:53:48;5.93;;;2.60;;
68870;SDS011;55906;52.278;6.808;2023-06-26T08:56:18;5.20;;;2.50;;
68870;SDS011;55906;52.278;6.808;2023-06-26T08:58:47;8.05;;;2.88;;
68870;SDS011;55906;52.278;6.808;2023-06-26T09:01:14;6.05;;;2.50;;
68870;SDS011;55906;52.278;6.808;2023-06-26T09:03:40;5.55;;;2.65;;
68870;SDS011;55906;52.278;6.808;2023-06-26T09:06:07;5.20;;;3.03;;
68870;SDS011;55906;52.278;6.808;2023-06-26T09:08:35;6.93;;;2.65;;
68870;SDS011;55906;52.278;6.808;2023-06-26T09:11:02;7.47;;;2.65;;
68870;SDS011;55906;52.278;6.808;2023-06-26T09:13:29;6.45;;;2.80;;
68870;SDS011;55906;52.278;6.808;2023-06-26T09:15:56;5.82;;;2.78;;
68870;SDS011;55906;52.278;6.808;2023-06-26T09:18:23;4.68;;;2.70;;
68870;SDS011;55906;52.278;6.808;2023-06-26T09:20:50;6.07;;;3.00;;
68870;SDS011;55906;52.278;6.808;2023-06-26T09:23:17;6.32;;;3.22;;
68870;SDS011;55906;52.278;6.808;2023-06-26T09:25:46;7.88;;;3.40;;
68870;SDS011;55906;52.278;6.808;2023-06-26T09:28:13;6.78;;;3.15;;
68870;SDS011;55906;52.278;6.808;2023-06-26T09:30:40;7.43;;;3.17;;
68870;SDS011;55906;52.278;6.808;2023-06-26T09:33:13;7.85;;;2.90;;
68870;SDS011;55906;52.278;6.808;2023-06-26T09:35:41;5.82;;;2.95;;
68870;SDS011;55906;52.278;6.808;2023-06-26T09:38:09;5.50;;;2.80;;
68870;SDS011;55906;52.278;6.808;2023-06-26T09:40:35;6.28;;;2.90;;
68870;SDS011;55906;52.278;6.808;2023-06-26T09:43:04;6.60;;;2.78;;
68870;SDS011;55906;52.278;6.808;2023-06-26T09:45:32;6.57;;;2.53;;
68870;SDS011;55906;52.278;6.808;2023-06-26T09:47:59;4.78;;;2.50;;
68870;SDS011;55906;52.278;6.808;2023-06-26T09:50:28;5.37;;;2.43;;
68870;SDS011;55906;52.278;6.808;2023-06-26T09:52:57;6.30;;;2.60;;
68870;SDS011;55906;52.278;6.808;2023-06-26T09:55:23;6.55;;;2.50;;
68870;SDS011;55906;52.278;6.808;2023-06-26T09:57:51;5.55;;;2.80;;
68870;SDS011;55906;52.278;6.808;2023-06-26T10:00:19;4.75;;;2.35;;
68870;SDS011;55906;52.278;6.808;2023-06-26T10:02:46;9.53;;;3.03;;
68870;SDS011;55906;52.278;6.808;2023-06-26T10:05:13;5.53;;;2.75;;
68870;SDS011;55906;52.278;6.808;2023-06-26T10:07:40;5.95;;;2.90;;
68870;SDS011;55906;52.278;6.808;2023-06-26T10:10:07;6.57;;;2.90;;
68870;SDS011;55906;52.278;6.808;2023-06-26T10:12:35;5.82;;;2.70;;
68870;SDS011;55906;52.278;6.808;2023-06-26T10:15:02;5.40;;;2.80;;
68870;SDS011;55906;52.278;6.808;2023-06-26T10:17:34;7.45;;;2.60;;
68870;SDS011;55906;52.278;6.808;2023-06-26T10:20:03;7.03;;;2.78;;
68870;SDS011;55906;52.278;6.808;2023-06-26T10:22:36;4.93;;;2.42;;
68870;SDS011;55906;52.278;6.808;2023-06-26T10:25:06;7.43;;;2.60;;
68870;SDS011;55906;52.278;6.808;2023-06-26T10:27:36;5.30;;;2.50;;
68870;SDS011;55906;52.278;6.808;2023-06-26T10:30:11;5.82;;;2.80;;
68870;SDS011;55906;52.278;6.808;2023-06-26T10:32:44;5.30;;;2.80;;
68870;SDS011;55906;52.278;6.808;2023-06-26T10:35:12;7.05;;;2.50;;
68870;SDS011;55906;52.278;6.808;2023-06-26T10:37:42;5.47;;;2.85;;
68870;SDS011;55906;52.278;6.808;2023-06-26T10:40:10;7.77;;;2.70;;
68870;SDS011;55906;52.278;6.808;2023-06-26T10:42:37;6.60;;;2.83;;
68870;SDS011;55906;52.278;6.808;2023-06-26T10:45:08;5.63;;;2.40;;
68870;SDS011;55906;52.278;6.808;2023-06-26T10:47:37;5.82;;;2.58;;
68870;SDS011;55906;52.278;6.808;2023-06-26T10:50:34;7.05;;;2.38;;
68870;SDS011;55906;52.278;6.808;2023-06-26T10:53:12;6.13;;;2.67;;
68870;SDS011;55906;52.278;6.808;2023-06-26T10:55:47;7.75;;;2.30;;
68870;SDS011;55906;52.278;6.808;2023-06-26T10:58:31;6.03;;;2.85;;
68870;SDS011;55906;52.278;6.808;2023-06-26T11:03:45;7.22;;;2.42;;
68870;SDS011;55906;52.278;6.808;2023-06-26T11:06:16;5.70;;;2.47;;
68870;SDS011;55906;52.278;6.808;2023-06-26T11:08:45;7.60;;;2.40;;
68870;SDS011;55906;52.278;6.808;2023-06-26T11:11:13;6.97;;;2.17;;
68870;SDS011;55906;52.278;6.808;2023-06-26T11:13:40;5.10;;;2.10;;
68870;SDS011;55906;52.278;6.808;2023-06-26T11:16:07;5.07;;;2.53;;
68870;SDS011;55906;52.278;6.808;2023-06-26T11:18:34;5.10;;;2.53;;
68870;SDS011;55906;52.278;6.808;2023-06-26T11:21:05;6.40;;;1.95;;
68870;SDS011;55906;52.278;6.808;2023-06-26T11:23:33;6.55;;;2.20;;
68870;SDS011;55906;52.278;6.808;2023-06-26T11:26:14;8.88;;;2.33;;
68870;SDS011;55906;52.278;6.808;2023-06-26T11:28:48;5.07;;;2.10;;
68870;SDS011;55906;52.278;6.808;2023-06-26T11:31:23;6.33;;;2.17;;
68870;SDS011;55906;52.278;6.808;2023-06-26T11:33:50;5.05;;;1.90;;
68870;SDS011;55906;52.278;6.808;2023-06-26T11:36:17;6.97;;;2.08;;
68870;SDS011;55906;52.278;6.808;2023-06-26T11:38:45;5.00;;;1.90;;
68870;SDS011;55906;52.278;6.808;2023-06-26T11:41:16;5.00;;;1.67;;
68870;SDS011;55906;52.278;6.808;2023-06-26T11:43:43;7.30;;;1.63;;
68870;SDS011;55906;52.278;6.808;2023-06-26T11:46:10;5.95;;;1.58;;
68870;SDS011;55906;52.278;6.808;2023-06-26T11:48:36;7.70;;;2.13;;
68870;SDS011;55906;52.278;6.808;2023-06-26T11:51:04;6.05;;;1.98;;
68870;SDS011;55906;52.278;6.808;2023-06-26T11:53:30;10.23;;;2.03;;
68870;SDS011;55906;52.278;6.808;2023-06-26T11:55:58;6.33;;;1.87;;
68870;SDS011;55906;52.278;6.808;2023-06-26T11:58:25;5.90;;;2.05;;
68870;SDS011;55906;52.278;6.808;2023-06-26T12:00:51;5.75;;;1.83;;
68870;SDS011;55906;52.278;6.808;2023-06-26T12:03:18;4.93;;;1.90;;
68870;SDS011;55906;52.278;6.808;2023-06-26T12:05:45;5.93;;;1.92;;
68870;SDS011;55906;52.278;6.808;2023-06-26T12:08:12;6.40;;;2.40;;
68870;SDS011;55906;52.278;6.808;2023-06-26T12:10:39;5.65;;;2.10;;
68870;SDS011;55906;52.278;6.808;2023-06-26T12:13:08;6.07;;;2.05;;
68870;SDS011;55906;52.278;6.808;2023-06-26T12:15:35;5.68;;;1.98;;
68870;SDS011;55906;52.278;6.808;2023-06-26T12:18:07;6.43;;;2.38;;
68870;SDS011;55906;52.278;6.808;2023-06-26T12:20:39;5.07;;;1.87;;
68870;SDS011;55906;52.278;6.808;2023-06-26T12:23:11;6.57;;;1.95;;
68870;SDS011;55906;52.278;6.808;2023-06-26T12:25:38;7.22;;;2.20;;
68870;SDS011;55906;52.278;6.808;2023-06-26T12:28:15;5.15;;;1.80;;
68870;SDS011;55906;52.278;6.808;2023-06-26T12:30:45;9.85;;;2.08;;
68870;SDS011;55906;52.278;6.808;2023-06-26T12:33:13;9.97;;;2.60;;
68870;SDS011;55906;52.278;6.808;2023-06-26T12:35:40;3.88;;;1.90;;
68870;SDS011;55906;52.278;6.808;2023-06-26T12:38:08;5.57;;;1.95;;
68870;SDS011;55906;52.278;6.808;2023-06-26T12:40:44;7.32;;;2.17;;
68870;SDS011;55906;52.278;6.808;2023-06-26T12:43:11;6.30;;;1.88;;
68870;SDS011;55906;52.278;6.808;2023-06-26T12:45:40;4.70;;;1.53;;
68870;SDS011;55906;52.278;6.808;2023-06-26T12:48:08;4.55;;;1.50;;
68870;SDS011;55906;52.278;6.808;2023-06-26T12:50:37;5.65;;;1.60;;
68870;SDS011;55906;52.278;6.808;2023-06-26T12:53:09;5.05;;;1.40;;
68870;SDS011;55906;52.278;6.808;2023-06-26T12:55:36;3.97;;;1.60;;
68870;SDS011;55906;52.278;6.808;2023-06-26T12:58:03;3.87;;;1.23;;
68870;SDS011;55906;52.278;6.808;2023-06-26T13:00:29;3.97;;;1.42;;
68870;SDS011;55906;52.278;6.808;2023-06-26T13:02:58;4.25;;;1.30;;
68870;SDS011;55906;52.278;6.808;2023-06-26T13:05:25;7.05;;;1.70;;
68870;SDS011;55906;52.278;6.808;2023-06-26T13:07:51;6.15;;;1.80;;
68870;SDS011;55906;52.278;6.808;2023-06-26T13:10:18;7.83;;;1.80;;
68870;SDS011;55906;52.278;6.808;2023-06-26T13:12:46;4.45;;;1.40;;
68870;SDS011;55906;52.278;6.808;2023-06-26T13:15:13;3.83;;;1.30;;
68870;SDS011;55906;52.278;6.808;2023-06-26T13:17:39;4.95;;;1.30;;
68870;SDS011;55906;52.278;6.808;2023-06-26T13:20:09;4.88;;;1.40;;
68870;SDS011;55906;52.278;6.808;2023-06-26T13:22:37;5.23;;;1.40;;
68870;SDS011;55906;52.278;6.808;2023-06-26T13:25:03;4.18;;;1.10;;
68870;SDS011;55906;52.278;6.808;2023-06-26T13:27:30;3.30;;;1.20;;
68870;SDS011;55906;52.278;6.808;2023-06-26T13:29:57;4.85;;;1.20;;
68870;SDS011;55906;52.278;6.808;2023-06-26T13:32:24;3.47;;;1.10;;
68870;SDS011;55906;52.278;6.808;2023-06-26T13:34:50;4.57;;;1.20;;
68870;SDS011;55906;52.278;6.808;2023-06-26T13:37:18;4.82;;;1.00;;
68870;SDS011;55906;52.278;6.808;2023-06-26T13:39:45;4.03;;;1.10;;
68870;SDS011;55906;52.278;6.808;2023-06-26T13:42:14;5.50;;;1.00;;
68870;SDS011;55906;52.278;6.808;2023-06-26T13:44:41;6.13;;;1.27;;
68870;SDS011;55906;52.278;6.808;2023-06-26T13:47:09;4.73;;;1.30;;
68870;SDS011;55906;52.278;6.808;2023-06-26T13:49:38;3.80;;;1.25;;
68870;SDS011;55906;52.278;6.808;2023-06-26T13:52:05;3.97;;;1.10;;
68870;SDS011;55906;52.278;6.808;2023-06-26T13:54:35;5.30;;;1.15;;
68870;SDS011;55906;52.278;6.808;2023-06-26T13:57:02;4.35;;;1.25;;
68870;SDS011;55906;52.278;6.808;2023-06-26T13:59:30;5.03;;;1.33;;
68870;SDS011;55906;52.278;6.808;2023-06-26T14:01:57;4.80;;;1.20;;
68870;SDS011;55906;52.278;6.808;2023-06-26T14:04:24;4.70;;;1.10;;
68870;SDS011;55906;52.278;6.808;2023-06-26T14:06:50;4.63;;;1.38;;
68870;SDS011;55906;52.278;6.808;2023-06-26T14:09:17;5.63;;;1.00;;
68870;SDS011;55906;52.278;6.808;2023-06-26T14:11:46;4.13;;;1.00;;
68870;SDS011;55906;52.278;6.808;2023-06-26T14:14:12;3.30;;;1.00;;
68870;SDS011;55906;52.278;6.808;2023-06-26T14:16:39;3.78;;;1.00;;
68870;SDS011;55906;52.278;6.808;2023-06-26T14:19:06;5.97;;;1.35;;
68870;SDS011;55906;52.278;6.808;2023-06-26T14:21:32;5.75;;;1.20;;
68870;SDS011;55906;52.278;6.808;2023-06-26T14:23:59;5.90;;;1.30;;
68870;SDS011;55906;52.278;6.808;2023-06-26T14:26:27;8.60;;;1.13;;
68870;SDS011;55906;52.278;6.808;2023-06-26T14:28:56;5.15;;;1.20;;
68870;SDS011;55906;52.278;6.808;2023-06-26T14:31:22;4.20;;;1.30;;
68870;SDS011;55906;52.278;6.808;2023-06-26T14:33:49;8.13;;;1.05;;
68870;SDS011;55906;52.278;6.808;2023-06-26T14:36:16;7.53;;;1.20;;
68870;SDS011;55906;52.278;6.808;2023-06-26T14:38:43;3.80;;;0.82;;
68870;SDS011;55906;52.278;6.808;2023-06-26T14:41:09;5.07;;;1.20;;
68870;SDS011;55906;52.278;6.808;2023-06-26T14:43:36;3.83;;;1.00;;
68870;SDS011;55906;52.278;6.808;2023-06-26T14:46:04;3.33;;;0.80;;
68870;SDS011;55906;52.278;6.808;2023-06-26T14:48:30;3.97;;;0.90;;